RYR62 ENBR-EDDH
Flight info
| Callsign | RYR62 |
|---|---|
| Flight time | N/A |
| Altitude | 29000 |
| Route | TUXI4D TUXIL ZOL RAMUD ALASA M852 EKERN T905 BOGMU BOGM3P |
| Aircraft | B38M/M-VGDW/C |
Departure
| Time | 2026-04-28 16:40 |
|---|---|
| Airport | Bergen Airport, Flesland (ENBR) |
Arrival
| Time | N/A |
|---|---|
| Airport | Hamburg Helmut Schmidt Airport (EDDH) |
| Time | Latitude | Longitude | Altitude | Speed | Heading |
|---|---|---|---|---|---|
| 2026-04-28 16:21 | 60.28857 | 5.22556 | 151 ft | 0 kts | 71° |
| 2026-04-28 16:34 | 60.28854 | 5.22536 | 151 ft | 3 kts | 71° |
| 2026-04-28 16:34 | 60.28848 | 5.22501 | 151 ft | 3 kts | 71° |
| 2026-04-28 16:35 | 60.28842 | 5.22466 | 151 ft | 3 kts | 71° |
| 2026-04-28 16:35 | 60.28841 | 5.22430 | 151 ft | 3 kts | 127° |
| 2026-04-28 16:35 | 60.28843 | 5.22421 | 151 ft | 0 kts | 148° |
| 2026-04-28 16:36 | 60.28838 | 5.22424 | 151 ft | 5 kts | 160° |
| 2026-04-28 16:36 | 60.28792 | 5.22400 | 150 ft | 7 kts | 233° |
| 2026-04-28 16:36 | 60.28738 | 5.22343 | 150 ft | 10 kts | 182° |
| 2026-04-28 16:36 | 60.28630 | 5.22377 | 149 ft | 23 kts | 171° |
| 2026-04-28 16:37 | 60.28445 | 5.22439 | 148 ft | 25 kts | 170° |
| 2026-04-28 16:37 | 60.28359 | 5.22468 | 147 ft | 9 kts | 171° |
| 2026-04-28 16:37 | 60.28310 | 5.22462 | 146 ft | 8 kts | 202° |
| 2026-04-28 16:38 | 60.28287 | 5.22402 | 146 ft | 0 kts | 255° |
| 2026-04-28 16:38 | 60.28285 | 5.22390 | 146 ft | 5 kts | 252° |
| 2026-04-28 16:38 | 60.28272 | 5.22193 | 146 ft | 15 kts | 278° |
| 2026-04-28 16:39 | 60.28307 | 5.22123 | 148 ft | 4 kts | 353° |
| 2026-04-28 16:39 | 60.28360 | 5.22142 | 148 ft | 15 kts | 1° |
| 2026-04-28 16:39 | 60.28481 | 5.22106 | 150 ft | 30 kts | 350° |
| 2026-04-28 16:39 | 60.28930 | 5.21947 | 153 ft | 100 kts | 348° |
| 2026-04-28 16:40 | 60.29743 | 5.21694 | 307 ft | 130 kts | 355° |
| 2026-04-28 16:40 | 60.30669 | 5.21679 | 810 ft | 131 kts | 11° |
| 2026-04-28 16:40 | 60.31538 | 5.21905 | 1455 ft | 129 kts | 6° |
| 2026-04-28 16:40 | 60.32188 | 5.22084 | 1567 ft | 157 kts | 8° |
| 2026-04-28 16:41 | 60.33758 | 5.22513 | 2554 ft | 161 kts | 6° |
| 2026-04-28 16:41 | 60.34480 | 5.22644 | 3161 ft | 162 kts | 2° |
| 2026-04-28 16:41 | 60.35648 | 5.22694 | 3643 ft | 175 kts | 357° |
| 2026-04-28 16:41 | 60.36923 | 5.22544 | 4135 ft | 192 kts | 354° |
| 2026-04-28 16:42 | 60.38759 | 5.22026 | 4863 ft | 211 kts | 349° |
| 2026-04-28 16:42 | 60.40251 | 5.21378 | 5428 ft | 227 kts | 346° |
| 2026-04-28 16:42 | 60.41309 | 5.20808 | 5813 ft | 238 kts | 344° |
| 2026-04-28 16:42 | 60.42934 | 5.19768 | 6333 ft | 253 kts | 341° |
| 2026-04-28 16:43 | 60.44608 | 5.18505 | 6482 ft | 256 kts | 338° |
| 2026-04-28 16:43 | 60.46225 | 5.16980 | 6488 ft | 257 kts | 332° |
| 2026-04-28 16:43 | 60.47625 | 5.14749 | 6478 ft | 260 kts | 312° |
| 2026-04-28 16:43 | 60.48545 | 5.11603 | 6495 ft | 262 kts | 291° |
| 2026-04-28 16:44 | 60.48805 | 5.07911 | 6489 ft | 269 kts | 268° |
| 2026-04-28 16:44 | 60.48471 | 5.04221 | 6582 ft | 268 kts | 258° |
| 2026-04-28 16:44 | 60.47630 | 5.00733 | 6873 ft | 278 kts | 232° |
| 2026-04-28 16:44 | 60.46120 | 4.98333 | 7152 ft | 286 kts | 206° |
| 2026-04-28 16:45 | 60.37566 | 4.98987 | 8321 ft | 336 kts | 174° |
| 2026-04-28 16:46 | 60.35172 | 4.99443 | 8615 ft | 349 kts | 174° |
| 2026-04-28 16:46 | 60.32720 | 4.99932 | 8907 ft | 357 kts | 174° |
| 2026-04-28 16:46 | 60.30242 | 5.00461 | 9191 ft | 362 kts | 173° |
| 2026-04-28 16:46 | 60.27740 | 5.01017 | 9466 ft | 362 kts | 171° |
| 2026-04-28 16:47 | 60.25252 | 5.01990 | 9742 ft | 364 kts | 168° |
| 2026-04-28 16:47 | 60.22749 | 5.02951 | 10017 ft | 367 kts | 168° |
| 2026-04-28 16:47 | 60.20230 | 5.03917 | 10291 ft | 370 kts | 168° |
| 2026-04-28 16:47 | 60.17693 | 5.04926 | 10543 ft | 372 kts | 167° |
| 2026-04-28 16:48 | 60.15238 | 5.06278 | 10786 ft | 371 kts | 156° |
| 2026-04-28 16:48 | 60.12845 | 5.08284 | 11026 ft | 373 kts | 154° |
| 2026-04-28 16:48 | 60.10467 | 5.10415 | 11274 ft | 375 kts | 154° |
| 2026-04-28 16:48 | 60.08073 | 5.12522 | 11526 ft | 377 kts | 155° |
| 2026-04-28 16:49 | 60.05647 | 5.14567 | 11770 ft | 378 kts | 155° |
| 2026-04-28 16:49 | 60.03217 | 5.16618 | 12117 ft | 378 kts | 154° |
| 2026-04-28 16:49 | 60.00776 | 5.18717 | 12624 ft | 385 kts | 154° |
| 2026-04-28 16:49 | 59.98300 | 5.20847 | 13149 ft | 390 kts | 154° |
| 2026-04-28 16:50 | 59.95788 | 5.22984 | 13683 ft | 393 kts | 154° |